Time;durP1;ratioP1;P1;durP2;ratioP2;P2;SDS_P1;SDS_P2;PMS_P1;PMS_P2;Temp;Humidity;BMP_temperature;BMP_pressure;BME280_temperature;BME280_humidity;BME280_pressure;Samples;Min_cycle;Max_cycle;Signal;HPM_P1;HPM_P2
2023/08/11 00:01:41;;;;;;;6.75;5.00;;;409.90;2355.20;;;;;;4991755;28;20455;-74
2023/08/11 00:04:07;;;;;;;5.72;4.82;;;409.80;2355.20;;;;;;4991135;28;20072;-65
2023/08/11 00:06:33;;;;;;;7.45;4.45;;;409.90;2355.20;;;;;;4990201;28;20030;-73
2023/08/11 00:08:59;;;;;;;8.27;4.97;;;409.90;2355.20;;;;;;4991070;28;20037;-72
2023/08/11 00:11:26;;;;;;;6.90;4.90;;;409.90;2355.20;;;;;;4990901;28;20034;-73
2023/08/11 00:13:52;;;;;;;9.23;4.75;;;409.90;2355.20;;;;;;4991012;28;20058;-67
2023/08/11 00:16:18;;;;;;;5.97;4.20;;;409.90;2355.20;;;;;;4991187;28;20112;-69
2023/08/11 00:18:45;;;;;;;6.75;4.90;;;409.90;2355.20;;;;;;4990867;28;20149;-73
2023/08/11 00:21:12;;;;;;;8.18;4.95;;;409.80;2355.20;;;;;;4991264;28;20030;-74
2023/08/11 00:23:39;;;;;;;8.43;5.40;;;409.80;2355.20;;;;;;4990741;28;20104;-73
2023/08/11 00:26:06;;;;;;;6.75;5.32;;;409.70;2355.20;;;;;;4991038;28;20108;-74
2023/08/11 00:28:32;;;;;;;7.05;4.63;;;409.70;2355.20;;;;;;4990699;28;20073;-60
2023/08/11 00:30:57;;;;;;;4.97;3.97;;;409.70;2355.20;;;;;;4990936;28;20053;-73
2023/08/11 00:33:23;;;;;;;7.03;4.35;;;409.70;2355.20;;;;;;4990404;28;20043;-73
2023/08/11 00:35:49;;;;;;;10.40;4.93;;;409.70;2355.20;;;;;;4977928;28;20034;-62
2023/08/11 00:38:15;;;;;;;5.88;4.00;;;409.70;2355.20;;;;;;4971036;28;20027;-65
2023/08/11 00:40:40;;;;;;;5.85;4.10;;;409.60;2355.20;;;;;;4971280;28;20035;-62
2023/08/11 00:43:06;;;;;;;4.78;4.00;;;409.60;2355.20;;;;;;4987058;28;20031;-62
2023/08/11 00:45:33;;;;;;;6.50;4.25;;;409.70;2355.20;;;;;;4990484;28;20049;-64
2023/08/11 00:47:59;;;;;;;8.88;4.38;;;409.60;2355.20;;;;;;4971172;28;20026;-63
2023/08/11 00:50:25;;;;;;;6.20;4.65;;;384.90;2329.60;;;;;;4970591;28;20035;-63
2023/08/11 00:52:51;;;;;;;8.18;4.65;;;384.90;2329.60;;;;;;4971018;28;20425;-63
2023/08/11 00:55:19;;;;;;;7.30;4.40;;;409.60;2355.20;;;;;;4970937;28;20397;-64
2023/08/11 00:57:45;;;;;;;5.40;4.50;;;409.60;2355.20;;;;;;4970640;28;20025;-63
2023/08/11 01:00:13;;;;;;;5.13;3.92;;;409.70;2355.20;;;;;;4971292;28;20497;-62
2023/08/11 01:02:42;;;;;;;5.15;3.60;;;409.70;2355.20;;;;;;4970861;28;20027;-62
2023/08/11 01:05:09;;;;;;;7.90;4.63;;;409.70;2355.20;;;;;;4970682;28;20081;-64
2023/08/11 01:07:48;;;;;;;5.47;3.75;;;409.60;2355.20;;;;;;4970815;28;20045;-63
2023/08/11 01:10:40;;;;;;;6.07;4.00;;;409.70;2355.20;;;;;;4970366;28;20441;-62
2023/08/11 01:13:16;;;;;;;7.88;4.28;;;409.90;2355.20;;;;;;4949621;28;20054;-62
2023/08/11 01:15:55;;;;;;;5.85;3.92;;;409.90;2355.20;;;;;;4970380;28;20041;-62
2023/08/11 01:18:22;;;;;;;4.78;3.85;;;410.00;2355.20;;;;;;4970127;28;20802;-62
2023/08/11 01:20:54;;;;;;;5.75;4.15;;;410.10;2355.20;;;;;;4970896;28;20378;-62
2023/08/11 01:23:21;;;;;;;7.63;4.47;;;410.00;2355.20;;;;;;4970637;28;20435;-63
2023/08/11 01:25:48;;;;;;;5.20;4.18;;;410.00;2355.20;;;;;;4977865;28;20041;-61
2023/08/11 01:28:14;;;;;;;5.32;4.28;;;410.10;2355.20;;;;;;4975218;28;20029;-64
2023/08/11 01:30:40;;;;;;;4.70;3.53;;;410.20;2355.20;;;;;;4970657;28;20038;-63
2023/08/11 01:33:06;;;;;;;8.68;4.05;;;410.30;2355.20;;;;;;4975890;28;20025;-62
2023/08/11 01:35:31;;;;;;;5.45;4.03;;;410.50;2355.20;;;;;;4986112;28;20404;-62
2023/08/11 01:37:57;;;;;;;6.43;3.83;;;435.20;2355.20;;;;;;4980507;28;20038;-63
2023/08/11 01:40:23;;;;;;;5.90;4.63;;;435.30;2355.20;;;;;;4989453;28;20110;-63
2023/08/11 01:42:50;;;;;;;6.35;3.70;;;435.30;2355.20;;;;;;4989480;28;20062;-63
2023/08/11 01:45:17;;;;;;;5.30;3.92;;;435.30;2355.20;;;;;;4989548;28;20026;-62
2023/08/11 01:47:45;;;;;;;6.45;4.20;;;435.20;2355.20;;;;;;4989745;28;20022;-63
2023/08/11 01:50:13;;;;;;;6.03;4.50;;;410.50;2355.20;;;;;;4989753;28;20105;-63
2023/08/11 01:52:42;;;;;;;5.82;4.25;;;435.20;2355.20;;;;;;4989876;28;20026;-62
2023/08/11 01:55:10;;;;;;;7.30;4.20;;;435.20;2355.20;;;;;;4989695;28;20065;-62
2023/08/11 01:57:37;;;;;;;10.95;4.93;;;410.50;2355.20;;;;;;4989201;28;20146;-64
2023/08/11 02:00:07;;;;;;;6.72;4.38;;;410.40;2355.20;;;;;;4989376;28;20025;-61
2023/08/11 02:02:33;;;;;;;6.78;4.10;;;410.30;2355.20;;;;;;4989105;28;20030;-62
2023/08/11 02:04:59;;;;;;;5.72;4.18;;;410.40;2355.20;;;;;;4989608;28;20062;-63
2023/08/11 02:07:24;;;;;;;6.57;3.92;;;410.30;2355.20;;;;;;4989466;28;20523;-64
2023/08/11 02:09:54;;;;;;;5.75;4.43;;;410.30;2355.20;;;;;;4989655;28;20465;-62
2023/08/11 02:12:20;;;;;;;5.78;3.92;;;410.20;2355.20;;;;;;4989160;28;20583;-62
2023/08/11 02:14:46;;;;;;;9.02;4.80;;;410.20;2355.20;;;;;;4989270;28;20480;-63
2023/08/11 02:17:11;;;;;;;6.85;3.75;;;410.20;2355.20;;;;;;4989162;28;20030;-63
2023/08/11 02:19:37;;;;;;;6.90;4.90;;;410.10;2355.20;;;;;;4989554;28;20029;-62
2023/08/11 02:22:03;;;;;;;5.68;4.45;;;410.00;2355.20;;;;;;4971417;28;20042;-63
2023/08/11 02:24:29;;;;;;;5.32;4.22;;;410.00;2355.20;;;;;;4989674;28;20050;-63
2023/08/11 02:26:55;;;;;;;5.88;4.15;;;410.00;2355.20;;;;;;4989314;28;20014;-62
2023/08/11 02:29:21;;;;;;;6.38;4.78;;;410.00;2355.20;;;;;;4989580;28;20022;-64
2023/08/11 02:31:47;;;;;;;6.63;5.13;;;410.40;2355.20;;;;;;4992694;28;20477;-63
2023/08/11 02:34:13;;;;;;;8.25;4.57;;;410.00;2355.20;;;;;;4993068;28;20054;-64
2023/08/11 02:36:38;;;;;;;6.25;4.32;;;409.90;2355.20;;;;;;4992997;28;20061;-63
2023/08/11 02:39:08;;;;;;;7.38;4.70;;;409.90;2355.20;;;;;;4992831;28;20081;-64
2023/08/11 02:41:34;;;;;;;7.38;4.68;;;409.90;2355.20;;;;;;4992503;28;20537;-62
2023/08/11 02:44:00;;;;;;;6.57;4.60;;;409.90;2355.20;;;;;;4992892;28;20537;-63
2023/08/11 02:46:26;;;;;;;6.25;4.65;;;409.80;2355.20;;;;;;4992662;28;20030;-62
2023/08/11 02:48:52;;;;;;;6.85;4.47;;;409.70;2355.20;;;;;;4992663;28;20359;-62
2023/08/11 02:51:19;;;;;;;5.13;4.53;;;409.70;2355.20;;;;;;4992600;28;20062;-63
2023/08/11 02:53:45;;;;;;;6.85;4.63;;;409.80;2355.20;;;;;;4992693;28;20077;-63
2023/08/11 02:56:15;;;;;;;6.82;4.97;;;409.80;2355.20;;;;;;4992667;28;20022;-63
2023/08/11 02:58:41;;;;;;;6.20;5.05;;;409.80;2355.20;;;;;;4992753;28;20104;-62
2023/08/11 03:01:07;;;;;;;11.60;5.55;;;409.80;2355.20;;;;;;4992706;28;20026;-62
2023/08/11 03:03:33;;;;;;;8.02;5.20;;;409.80;2355.20;;;;;;4992083;28;20069;-62
2023/08/11 03:05:59;;;;;;;7.05;5.00;;;409.80;2355.20;;;;;;4992444;28;20038;-63
2023/08/11 03:08:25;;;;;;;7.30;4.63;;;409.90;2355.20;;;;;;4992207;28;20034;-63
2023/08/11 03:10:51;;;;;;;7.53;4.65;;;409.80;2355.20;;;;;;4992153;28;20044;-62
2023/08/11 03:13:17;;;;;;;5.70;4.47;;;409.80;2355.20;;;;;;4991824;28;20038;-63
2023/08/11 03:15:43;;;;;;;7.85;4.90;;;409.70;2355.20;;;;;;4991843;28;20030;-63
2023/08/11 03:18:10;;;;;;;5.95;4.20;;;409.60;2355.20;;;;;;4992259;28;20031;-62
2023/08/11 03:20:36;;;;;;;9.68;5.30;;;409.70;2355.20;;;;;;4992161;28;20022;-63
2023/08/11 03:23:04;;;;;;;6.28;5.07;;;409.60;2355.20;;;;;;4992088;28;20061;-63
2023/08/11 03:25:30;;;;;;;7.03;5.35;;;409.60;2355.20;;;;;;4979459;28;20030;-62
2023/08/11 03:27:56;;;;;;;6.13;4.65;;;409.60;2355.20;;;;;;4991807;28;20096;-63
2023/08/11 03:30:22;;;;;;;8.52;5.03;;;409.60;2355.20;;;;;;4991608;28;20042;-63
2023/08/11 03:32:48;;;;;;;7.72;5.28;;;384.90;2329.60;;;;;;4991939;28;20018;-62
2023/08/11 03:35:14;;;;;;;7.20;5.05;;;384.90;2329.60;;;;;;4991944;28;20025;-63
2023/08/11 03:37:40;;;;;;;8.98;6.38;;;384.70;2329.60;;;;;;4991944;28;20511;-63
2023/08/11 03:40:12;;;;;;;7.43;5.38;;;384.60;2329.60;;;;;;4991590;28;20022;-62
2023/08/11 03:42:42;;;;;;;5.78;4.60;;;384.70;2329.60;;;;;;4991769;28;20035;-63
2023/08/11 03:45:11;;;;;;;6.85;5.30;;;384.80;2329.60;;;;;;4991786;28;20101;-63
2023/08/11 03:47:37;;;;;;;8.27;5.68;;;384.90;2329.60;;;;;;4991719;28;20068;-63
2023/08/11 03:50:03;;;;;;;6.60;4.93;;;409.60;2355.20;;;;;;4991525;28;20030;-63
2023/08/11 03:52:29;;;;;;;6.65;5.40;;;409.70;2355.20;;;;;;4991610;28;20069;-62
2023/08/11 03:54:55;;;;;;;6.15;5.05;;;409.80;2355.20;;;;;;4991578;28;20057;-63
2023/08/11 03:57:21;;;;;;;8.38;6.22;;;409.90;2355.20;;;;;;4991859;28;20113;-64
2023/08/11 03:59:46;;;;;;;8.30;5.38;;;410.10;2355.20;;;;;;4991287;28;20026;-62
2023/08/11 04:02:13;;;;;;;6.90;5.32;;;410.20;2355.20;;;;;;4991037;28;20026;-64
2023/08/11 04:04:38;;;;;;;10.55;5.93;;;410.40;2355.20;;;;;;4991529;28;20057;-62
2023/08/11 04:07:05;;;;;;;6.45;5.15;;;410.50;2355.20;;;;;;4991240;28;20058;-64
2023/08/11 04:09:31;;;;;;;6.30;5.68;;;435.20;2355.20;;;;;;4991363;28;20034;-63
2023/08/11 04:11:57;;;;;;;7.18;5.68;;;435.30;2355.20;;;;;;4991122;28;20070;-63
2023/08/11 04:14:22;;;;;;;7.55;5.82;;;435.50;2355.20;;;;;;4990793;28;20037;-63
2023/08/11 04:16:48;;;;;;;7.57;5.82;;;435.60;2355.20;;;;;;4990884;28;20034;-63
2023/08/11 04:19:14;;;;;;;6.40;5.32;;;435.80;2355.20;;;;;;4991085;28;20025;-62
2023/08/11 04:21:40;;;;;;;6.78;5.60;;;436.00;2355.20;;;;;;4990795;28;20023;-63
2023/08/11 04:24:06;;;;;;;7.03;4.97;;;436.10;2355.20;;;;;;4990874;28;20031;-63
2023/08/11 04:26:36;;;;;;;7.00;5.13;;;460.80;2380.80;;;;;;4990562;28;20026;-63
2023/08/11 04:29:01;;;;;;;7.90;5.55;;;460.90;2380.80;;;;;;4990334;28;20133;-63
2023/08/11 04:31:28;;;;;;;7.47;5.75;;;461.00;2380.80;;;;;;4990498;28;20125;-62
2023/08/11 04:33:54;;;;;;;8.25;5.60;;;461.10;2380.80;;;;;;4977156;28;20029;-62
2023/08/11 04:36:19;;;;;;;9.18;5.22;;;461.30;2380.80;;;;;;4990986;28;20030;-63
2023/08/11 04:38:45;;;;;;;6.75;5.38;;;461.40;2380.80;;;;;;4990205;28;20053;-63
2023/08/11 04:41:11;;;;;;;7.45;4.75;;;461.40;2380.80;;;;;;4972252;28;20042;-62
2023/08/11 04:43:37;;;;;;;9.38;5.07;;;461.40;2380.80;;;;;;4990160;28;20026;-63
2023/08/11 04:46:03;;;;;;;6.47;4.75;;;461.40;2380.80;;;;;;4989991;28;20473;-63
2023/08/11 04:48:30;;;;;;;6.40;4.95;;;461.40;2380.80;;;;;;4990450;28;20027;-63
2023/08/11 04:50:56;;;;;;;6.50;4.80;;;461.40;2380.80;;;;;;4990070;28;20034;-62
2023/08/11 04:53:22;;;;;;;5.93;5.15;;;461.40;2380.80;;;;;;4989656;28;20369;-64
2023/08/11 04:55:48;;;;;;;5.70;4.93;;;461.40;2380.80;;;;;;4989955;28;20042;-63
2023/08/11 04:58:14;;;;;;;7.70;5.13;;;461.60;2380.80;;;;;;4990045;28;20029;-63
2023/08/11 05:00:40;;;;;;;5.70;4.45;;;461.70;2380.80;;;;;;4990238;28;20030;-64
2023/08/11 05:03:06;;;;;;;6.18;4.85;;;461.60;2380.80;;;;;;4989948;28;20026;-62
2023/08/11 05:05:31;;;;;;;7.95;5.80;;;461.60;2380.80;;;;;;4989966;28;20046;-63
2023/08/11 05:07:57;;;;;;;7.20;5.45;;;461.50;2380.80;;;;;;4990434;28;20389;-62
2023/08/11 05:10:23;;;;;;;7.63;5.40;;;461.60;2380.80;;;;;;4989433;28;20043;-62
2023/08/11 05:12:49;;;;;;;7.70;5.20;;;461.50;2380.80;;;;;;4989845;28;20460;-63
2023/08/11 05:15:15;;;;;;;7.55;5.82;;;461.50;2380.80;;;;;;4989663;28;20030;-62
2023/08/11 05:17:40;;;;;;;9.57;5.38;;;461.70;2380.80;;;;;;4989950;28;20484;-62
2023/08/11 05:20:10;;;;;;;7.32;5.60;;;486.40;2380.80;;;;;;4989856;28;20026;-62
2023/08/11 05:22:36;;;;;;;8.90;5.28;;;486.50;2380.80;;;;;;4989777;28;20039;-63
2023/08/11 05:25:06;;;;;;;5.72;4.60;;;486.60;2380.80;;;;;;4989429;28;20053;-64
2023/08/11 05:27:32;;;;;;;6.10;5.05;;;487.10;2380.80;;;;;;4989888;28;20022;-62
2023/08/11 05:29:58;;;;;;;6.88;4.72;;;512.10;2380.80;;;;;;4989664;28;20038;-62
2023/08/11 05:32:23;;;;;;;6.97;4.85;;;512.80;2380.80;;;;;;4989519;28;20126;-63
2023/08/11 05:34:50;;;;;;;6.07;4.70;;;538.50;2406.40;;;;;;4989795;28;20041;-61
2023/08/11 05:37:17;;;;;;;6.30;4.75;;;564.00;2432.00;;;;;;4989825;28;20045;-63
2023/08/11 05:39:43;;;;;;;5.97;4.40;;;564.00;2432.00;;;;;;4989376;28;20495;-62
2023/08/11 05:42:09;;;;;;;6.28;4.53;;;640.50;2432.00;;;;;;4989895;28;20027;-63
2023/08/11 05:44:35;;;;;;;5.47;4.32;;;742.90;2022.40;;;;;;4988395;28;20069;-64
2023/08/11 05:47:01;;;;;;;7.45;5.13;;;794.50;1766.40;;;;;;4989577;28;20042;-63
2023/08/11 05:49:27;;;;;;;7.07;5.25;;;845.70;1612.80;;;;;;4989466;28;20037;-63
2023/08/11 05:51:53;;;;;;;6.85;5.30;;;871.30;1510.40;;;;;;4989654;28;20035;-63
2023/08/11 05:54:19;;;;;;;6.25;5.65;;;870.50;1536.00;;;;;;4989491;28;20065;-63
2023/08/11 05:56:45;;;;;;;16.35;6.97;;;922.00;1408.00;;;;;;4989378;28;20432;-64
2023/08/11 05:59:11;;;;;;;5.82;5.30;;;922.50;1382.40;;;;;;4989426;28;20018;-65
2023/08/11 06:01:37;;;;;;;7.60;5.18;;;973.40;1331.20;;;;;;4989466;28;20534;-64
2023/08/11 06:04:03;;;;;;;6.20;5.60;;;1024.00;1254.40;;;;;;4989156;28;20026;-66
2023/08/11 06:06:29;;;;;;;10.18;6.80;;;1049.70;1228.80;;;;;;4993516;28;20488;-64
2023/08/11 06:08:54;;;;;;;5.85;5.32;;;1075.60;1152.00;;;;;;4992987;28;20146;-65
2023/08/11 06:11:21;;;;;;;5.75;5.15;;;1049.70;1203.20;;;;;;4993419;28;20088;-65
2023/08/11 06:13:47;;;;;;;5.65;5.03;;;948.10;1280.00;;;;;;4992972;28;20050;-66
2023/08/11 06:16:12;;;;;;;8.00;6.65;;;871.00;1408.00;;;;;;4993047;28;20027;-65
2023/08/11 06:18:38;;;;;;;7.88;6.95;;;871.00;1433.60;;;;;;4993032;28;20041;-62
2023/08/11 06:21:05;;;;;;;6.90;6.20;;;921.80;1356.80;;;;;;4993231;28;20033;-63
2023/08/11 06:23:32;;;;;;;8.15;6.38;;;973.70;1254.40;;;;;;4981212;28;20386;-63
2023/08/11 06:25:57;;;;;;;8.50;7.03;;;1024.60;1177.60;;;;;;4991931;28;20045;-65
2023/08/11 06:28:23;;;;;;;6.53;5.93;;;1049.90;1177.60;;;;;;4992861;28;20026;-64
2023/08/11 06:30:49;;;;;;;7.57;6.88;;;1024.60;1152.00;;;;;;4992656;28;20066;-64
2023/08/11 06:33:15;;;;;;;7.80;7.10;;;1050.00;1152.00;;;;;;4992691;28;20026;-63
2023/08/11 06:35:42;;;;;;;6.90;6.40;;;1075.30;1126.40;;;;;;4992770;28;20054;-63
2023/08/11 06:38:09;;;;;;;7.85;7.15;;;1075.40;1100.80;;;;;;4990420;28;20168;-64
2023/08/11 06:40:38;;;;;;;7.45;6.65;;;1075.30;1126.40;;;;;;4982816;28;20085;-64
2023/08/11 06:43:04;;;;;;;9.82;7.07;;;1075.40;1126.40;;;;;;4992450;28;20110;-63
2023/08/11 06:45:30;;;;;;;8.00;7.30;;;1050.20;1152.00;;;;;;4981663;28;20031;-64
2023/08/11 06:47:56;;;;;;;9.15;7.35;;;1075.60;1100.80;;;;;;4972928;28;20049;-64
2023/08/11 06:50:22;;;;;;;7.85;7.20;;;1076.10;1075.20;;;;;;4991578;28;20464;-64
2023/08/11 06:52:47;;;;;;;7.38;6.72;;;1076.10;1075.20;;;;;;4992157;28;20050;-64
2023/08/11 06:55:13;;;;;;;8.50;7.65;;;1101.20;1075.20;;;;;;4992263;28;20022;-65
2023/08/11 06:57:39;;;;;;;8.15;7.55;;;1100.80;1100.80;;;;;;4987777;28;20061;-64
2023/08/11 07:00:07;;;;;;;7.70;7.00;;;1101.00;1075.20;;;;;;4984046;28;20072;-65
2023/08/11 07:02:33;;;;;;;8.57;7.88;;;1126.40;1075.20;;;;;;4992281;28;20026;-65
2023/08/11 07:04:59;;;;;;;8.45;7.68;;;1126.40;1075.20;;;;;;4992680;28;20795;-65
2023/08/11 07:07:25;;;;;;;8.18;7.47;;;1101.50;1024.00;;;;;;4992557;28;20361;-64
2023/08/11 07:09:52;;;;;;;6.70;6.10;;;1101.40;1075.20;;;;;;4992195;28;20046;-64
2023/08/11 07:12:18;;;;;;;7.35;6.40;;;1050.00;1126.40;;;;;;4992306;28;20065;-64
2023/08/11 07:14:43;;;;;;;8.35;7.65;;;999.20;1177.60;;;;;;4991331;28;20050;-65
2023/08/11 07:17:10;;;;;;;7.50;5.40;;;1075.60;1075.20;;;;;;4991170;28;20032;-65
2023/08/11 07:19:37;;;;;;;8.52;7.72;;;973.40;1177.60;;;;;;4992212;28;20029;-64
2023/08/11 07:22:03;;;;;;;8.20;7.53;;;999.30;1152.00;;;;;;4991542;28;20092;-65
2023/08/11 07:24:29;;;;;;;8.32;7.63;;;1050.20;1075.20;;;;;;4991777;28;20144;-64
2023/08/11 07:26:55;;;;;;;8.25;7.55;;;1050.40;1075.20;;;;;;4991713;28;20110;-65
2023/08/11 07:29:20;;;;;;;9.07;8.30;;;1101.30;1024.00;;;;;;4991507;28;20477;-65
2023/08/11 07:31:46;;;;;;;8.95;7.82;;;1101.60;998.40;;;;;;4991069;28;20092;-64
2023/08/11 07:34:12;;;;;;;8.68;8.02;;;1101.60;1024.00;;;;;;4991728;28;20350;-64
2023/08/11 07:36:38;;;;;;;8.35;7.65;;;1126.40;1024.00;;;;;;4976327;28;20033;-64
2023/08/11 07:39:07;;;;;;;8.38;7.68;;;1126.60;1024.00;;;;;;4989909;28;20366;-65
2023/08/11 07:41:33;;;;;;;7.03;6.43;;;1126.40;1024.00;;;;;;4989726;28;20029;-66
2023/08/11 07:43:59;;;;;;;8.15;7.45;;;1075.30;1049.60;;;;;;4990032;28;20100;-67
2023/08/11 07:46:25;;;;;;;6.80;6.10;;;1101.10;1024.00;;;;;;4971741;28;20651;-66
2023/08/11 07:48:50;;;;;;;7.55;5.95;;;1100.80;1049.60;;;;;;4971642;28;20034;-66
2023/08/11 07:51:16;;;;;;;7.97;5.22;;;998.50;1152.00;;;;;;4960852;28;20103;-66
2023/08/11 07:53:44;;;;;;;6.70;5.00;;;973.20;1152.00;;;;;;4988738;28;20117;-66
2023/08/11 07:56:11;;;;;;;6.35;5.07;;;921.80;1203.20;;;;;;4989922;28;20695;-65
2023/08/11 07:58:37;;;;;;;8.02;7.32;;;896.20;1228.80;;;;;;4970481;28;20038;-66
2023/08/11 08:01:03;;;;;;;5.97;5.47;;;973.10;1152.00;;;;;;4987959;28;20026;-66
2023/08/11 08:03:29;;;;;;;5.20;4.70;;;948.10;1126.40;;;;;;4989033;28;20057;-64
2023/08/11 08:05:54;;;;;;;5.32;4.82;;;972.80;1152.00;;;;;;4988967;28;20500;-65
2023/08/11 08:08:20;;;;;;;6.13;5.30;;;896.80;1203.20;;;;;;4989462;28;20022;-64
2023/08/11 08:10:46;;;;;;;5.35;4.85;;;870.70;1280.00;;;;;;4989084;28;20129;-64
2023/08/11 08:13:12;;;;;;;6.18;5.57;;;922.20;1203.20;;;;;;4989066;28;20049;-64
2023/08/11 08:15:38;;;;;;;6.43;5.82;;;973.30;1177.60;;;;;;4988673;28;20038;-64
2023/08/11 08:18:05;;;;;;;7.72;7.13;;;1024.20;1126.40;;;;;;4989535;28;20041;-64
2023/08/11 08:20:31;;;;;;;7.45;6.93;;;1075.60;1024.00;;;;;;4990823;28;20018;-64
2023/08/11 08:22:57;;;;;;;7.55;6.90;;;1075.90;1024.00;;;;;;4990742;28;20022;-65
2023/08/11 08:25:23;;;;;;;7.45;6.85;;;1076.10;972.80;;;;;;4990494;28;20485;-64
2023/08/11 08:27:49;;;;;;;7.78;7.18;;;1075.20;1049.60;;;;;;4989535;28;20054;-64
2023/08/11 08:30:15;;;;;;;7.70;7.07;;;1100.90;1024.00;;;;;;4990262;28;20030;-65
2023/08/11 08:32:42;;;;;;;7.70;7.03;;;1100.80;1024.00;;;;;;4990235;28;20027;-63
2023/08/11 08:35:09;;;;;;;5.03;4.53;;;1101.30;998.40;;;;;;4990469;28;20481;-64
2023/08/11 08:37:35;;;;;;;9.23;5.20;;;998.50;1100.80;;;;;;4990284;28;20030;-63
2023/08/11 08:40:01;;;;;;;5.10;3.72;;;922.40;1152.00;;;;;;4990385;28;20397;-64
2023/08/11 08:42:29;;;;;;;5.20;4.53;;;870.70;1254.40;;;;;;4990562;28;20097;-63
2023/08/11 08:44:56;;;;;;;4.90;3.67;;;844.90;1331.20;;;;;;4989894;28;20015;-64
2023/08/11 08:47:23;;;;;;;6.75;4.00;;;819.60;1305.60;;;;;;4990313;28;20038;-63
2023/08/11 08:49:49;;;;;;;5.22;4.35;;;794.50;1356.80;;;;;;4989995;28;20109;-62
2023/08/11 08:52:16;;;;;;;4.82;4.28;;;819.50;1305.60;;;;;;4990065;28;20042;-63
2023/08/11 08:54:44;;;;;;;5.53;4.10;;;819.70;1280.00;;;;;;4989659;28;20160;-63
2023/08/11 08:57:10;;;;;;;6.28;3.85;;;794.50;1356.80;;;;;;4989986;28;20113;-63
2023/08/11 08:59:39;;;;;;;5.57;3.83;;;794.50;1331.20;;;;;;4989590;28;20026;-62
2023/08/11 09:02:06;;;;;;;5.28;3.88;;;794.50;1331.20;;;;;;4989582;28;20030;-63
2023/08/11 09:04:33;;;;;;;5.00;3.90;;;794.50;1280.00;;;;;;4977064;28;20022;-64
2023/08/11 09:07:00;;;;;;;4.72;4.07;;;794.40;1305.60;;;;;;4990200;28;20110;-62
2023/08/11 09:09:27;;;;;;;6.15;3.78;;;794.20;1356.80;;;;;;4989570;28;20035;-62
2023/08/11 09:11:54;;;;;;;4.80;3.92;;;793.70;1382.40;;;;;;4989355;28;20058;-62
2023/08/11 09:14:21;;;;;;;5.18;3.65;;;768.60;1433.60;;;;;;4989565;28;20025;-64
2023/08/11 09:16:50;;;;;;;6.55;3.80;;;768.90;1382.40;;;;;;4989049;28;20033;-61
2023/08/11 09:19:16;;;;;;;5.15;3.17;;;793.70;1433.60;;;;;;4979650;28;20030;-62
2023/08/11 09:21:45;;;;;;;5.10;3.67;;;793.70;1408.00;;;;;;4969796;28;20030;-64
2023/08/11 09:24:12;;;;;;;6.05;3.67;;;793.70;1356.80;;;;;;4970044;28;20022;-63
2023/08/11 09:26:50;;;;;;;3.38;3.08;;;793.80;1408.00;;;;;;4984471;28;20030;-62
2023/08/11 09:29:17;;;;;;;4.43;3.30;;;768.60;1331.20;;;;;;4982142;28;20054;-63
2023/08/11 09:31:54;;;;;;;6.55;3.55;;;768.60;1356.80;;;;;;4969315;28;20041;-63
2023/08/11 09:34:20;;;;;;;3.80;3.30;;;768.80;1382.40;;;;;;4969759;28;20109;-62
2023/08/11 09:36:48;;;;;;;4.25;3.60;;;768.30;1382.40;;;;;;4979626;28;20073;-63
2023/08/11 09:39:14;;;;;;;4.95;3.42;;;743.00;1382.40;;;;;;4967403;28;20109;-63
2023/08/11 09:41:45;;;;;;;5.75;3.55;;;768.30;1382.40;;;;;;4969817;28;20445;-64
2023/08/11 09:44:14;;;;;;;4.82;3.42;;;768.60;1356.80;;;;;;4974842;28;20058;-62
2023/08/11 09:46:41;;;;;;;4.15;3.40;;;768.60;1356.80;;;;;;4989320;28;20030;-63
2023/08/11 09:49:08;;;;;;;4.18;3.17;;;743.30;1382.40;;;;;;4989160;28;20376;-63
2023/08/11 09:51:38;;;;;;;4.88;3.30;;;742.80;1382.40;;;;;;4989264;28;20042;-62
2023/08/11 09:54:07;;;;;;;6.03;3.75;;;742.50;1433.60;;;;;;4989075;28;20457;-63
2023/08/11 09:56:35;;;;;;;6.50;3.53;;;717.40;1408.00;;;;;;4988985;28;20041;-63
2023/08/11 09:59:09;;;;;;;3.67;2.67;;;717.10;1459.20;;;;;;4989213;28;20022;-63
2023/08/11 10:01:36;;;;;;;4.25;3.22;;;717.50;1510.40;;;;;;4989000;28;20088;-63
2023/08/11 10:04:10;;;;;;;5.15;3.38;;;742.40;1459.20;;;;;;4989117;28;20026;-64
2023/08/11 10:06:39;;;;;;;3.38;2.65;;;742.80;1459.20;;;;;;4989170;28;20085;-63
2023/08/11 10:09:09;;;;;;;4.32;3.00;;;743.30;1484.80;;;;;;4988891;28;20640;-64
2023/08/11 10:11:36;;;;;;;3.28;2.55;;;743.30;1433.60;;;;;;4988997;28;20102;-63
2023/08/11 10:14:04;;;;;;;5.50;3.15;;;743.10;1408.00;;;;;;4988975;28;20133;-63
2023/08/11 10:16:30;;;;;;;3.50;2.92;;;743.10;1408.00;;;;;;4971250;28;20038;-63
2023/08/11 10:18:57;;;;;;;7.97;3.50;;;742.80;1433.60;;;;;;4988725;28;20035;-64
2023/08/11 10:21:26;;;;;;;5.43;3.40;;;742.60;1433.60;;;;;;4988744;28;20034;-64
2023/08/11 10:23:56;;;;;;;4.05;3.40;;;743.00;1382.40;;;;;;4989120;28;20534;-64
2023/08/11 10:26:23;;;;;;;5.18;3.15;;;743.10;1408.00;;;;;;4989105;28;20505;-63
2023/08/11 10:28:50;;;;;;;3.78;2.70;;;742.90;1408.00;;;;;;4988895;28;20018;-64
2023/08/11 10:31:16;;;;;;;4.07;2.75;;;717.70;1382.40;;;;;;4988767;28;20042;-64
2023/08/11 10:33:48;;;;;;;4.07;2.70;;;717.70;1408.00;;;;;;4988877;28;20028;-64
2023/08/11 10:36:17;;;;;;;4.70;2.90;;;717.20;1433.60;;;;;;4988895;28;20018;-64
2023/08/11 10:38:44;;;;;;;4.35;2.75;;;716.80;1408.00;;;;;;4988552;28;20063;-64
2023/08/11 10:41:10;;;;;;;3.55;2.92;;;716.90;1433.60;;;;;;4988763;28;20049;-65
2023/08/11 10:43:37;;;;;;;3.60;3.25;;;717.40;1433.60;;;;;;4988790;28;20424;-63
2023/08/11 10:46:28;;;;;;;6.05;2.95;;;742.40;1408.00;;;;;;4988601;28;20105;-65
2023/08/11 10:48:57;;;;;;;5.25;3.30;;;742.60;1382.40;;;;;;4988393;28;20031;-63
2023/08/11 10:51:34;;;;;;;6.40;3.22;;;743.00;1382.40;;;;;;4990478;28;20030;-64
2023/08/11 10:54:10;;;;;;;3.75;3.08;;;742.50;1408.00;;;;;;4992356;28;20041;-64
2023/08/11 10:56:40;;;;;;;4.07;3.22;;;717.70;1382.40;;;;;;4992077;28;20485;-64
2023/08/11 10:59:37;;;;;;;4.22;2.88;;;717.40;1408.00;;;;;;4992450;28;20420;-64
2023/08/11 11:02:03;;;;;;;5.38;2.95;;;742.60;1459.20;;;;;;4912612;29;20423;-64
2023/08/11 11:04:31;;;;;;;3.75;2.75;;;717.70;1382.40;;;;;;4913222;29;20058;-63
2023/08/11 11:06:58;;;;;;;4.38;3.40;;;717.40;1459.20;;;;;;4913147;29;20122;-63
2023/08/11 11:09:24;;;;;;;6.78;3.30;;;717.60;1433.60;;;;;;4913028;29;20120;-64
2023/08/11 11:11:53;;;;;;;5.50;3.28;;;717.30;1433.60;;;;;;4912882;29;20091;-63
2023/08/11 11:14:21;;;;;;;4.47;3.25;;;717.30;1459.20;;;;;;4912983;29;20048;-63
2023/08/11 11:16:47;;;;;;;4.70;3.05;;;716.90;1433.60;;;;;;4912564;29;20036;-64
2023/08/11 11:19:13;;;;;;;3.90;3.28;;;717.20;1459.20;;;;;;4912798;29;20032;-64
2023/08/11 11:21:42;;;;;;;4.72;3.20;;;717.20;1459.20;;;;;;4913059;29;20490;-63
2023/08/11 11:24:09;;;;;;;6.57;3.10;;;717.20;1459.20;;;;;;4913157;29;20270;-64
2023/08/11 11:26:35;;;;;;;4.95;3.10;;;716.90;1484.80;;;;;;4912946;29;20144;-64
2023/08/11 11:29:02;;;;;;;7.65;3.25;;;716.90;1484.80;;;;;;4897141;29;20471;-63
2023/08/11 11:31:30;;;;;;;5.03;3.65;;;692.10;1459.20;;;;;;4912424;29;20060;-63
2023/08/11 11:33:56;;;;;;;4.07;2.88;;;691.80;1510.40;;;;;;4912389;29;20526;-63
2023/08/11 11:36:23;;;;;;;3.72;2.75;;;692.10;1433.60;;;;;;4896831;29;20044;-63
2023/08/11 11:38:49;;;;;;;5.55;4.00;;;691.60;1433.60;;;;;;4960335;28;20068;-63
2023/08/11 11:41:17;;;;;;;4.45;3.30;;;716.90;1459.20;;;;;;4991541;28;20034;-63
2023/08/11 11:43:48;;;;;;;4.47;2.97;;;717.60;1510.40;;;;;;4991372;28;20019;-64
2023/08/11 11:46:15;;;;;;;5.30;2.85;;;742.50;1459.20;;;;;;4991348;28;20121;-63
2023/08/11 11:48:51;;;;;;;3.90;3.15;;;742.70;1536.00;;;;;;4991686;28;20026;-65
2023/08/11 11:51:25;;;;;;;5.40;3.30;;;742.80;1433.60;;;;;;4991415;28;20068;-64
2023/08/11 11:53:53;;;;;;;4.07;2.72;;;742.40;1408.00;;;;;;4991599;28;20029;-63
2023/08/11 11:56:20;;;;;;;5.05;3.17;;;717.70;1382.40;;;;;;4973614;28;20030;-63
2023/08/11 11:58:46;;;;;;;4.70;3.40;;;717.30;1433.60;;;;;;4991297;28;20401;-64
2023/08/11 12:01:17;;;;;;;4.78;3.28;;;717.20;1433.60;;;;;;4991283;28;20022;-65
2023/08/11 12:03:48;;;;;;;5.45;3.05;;;716.80;1433.60;;;;;;4990881;28;20057;-64
2023/08/11 12:06:15;;;;;;;3.42;2.80;;;717.40;1484.80;;;;;;4978985;28;20045;-64
2023/08/11 12:08:42;;;;;;;7.18;3.85;;;717.70;1408.00;;;;;;4991011;28;20053;-65
2023/08/11 12:11:12;;;;;;;4.55;3.17;;;717.70;1433.60;;;;;;4991404;28;20456;-65
2023/08/11 12:13:41;;;;;;;4.13;2.90;;;717.60;1433.60;;;;;;4991014;28;20527;-63
2023/08/11 12:16:08;;;;;;;4.63;3.00;;;717.30;1408.00;;;;;;4989385;28;20039;-63